createdAt,value
2023-09-08T00:00:40.098Z,102300.91
2023-09-08T00:03:07.680Z,102296.78
2023-09-08T00:05:35.474Z,102296.78
2023-09-08T00:08:03.093Z,102284.75
2023-09-08T00:10:30.592Z,102295.44
2023-09-08T00:12:58.136Z,102289.75
2023-09-08T00:15:25.622Z,102295.56
2023-09-08T00:17:52.862Z,102291.41
2023-09-08T00:20:20.207Z,102291.50
2023-09-08T00:22:47.491Z,102288.19
2023-09-08T00:25:15.106Z,102278.34
2023-09-08T00:27:42.785Z,102282.97
2023-09-08T00:30:10.561Z,102273.84
2023-09-08T00:32:38.861Z,102270.69
2023-09-08T00:35:12.020Z,102274.09
2023-09-08T00:37:39.387Z,102271.94
2023-09-08T00:40:09.131Z,102266.69
2023-09-08T00:42:37.132Z,102270.69
2023-09-08T00:45:05.228Z,102270.91
2023-09-08T00:47:32.933Z,102263.84
2023-09-08T00:50:00.252Z,102269.47
2023-09-08T00:52:32.342Z,102261.13
2023-09-08T00:55:00.269Z,102254.63
2023-09-08T00:57:27.582Z,102252.47
2023-09-08T00:59:55.129Z,102255.38
2023-09-08T01:02:23.584Z,102256.94
2023-09-08T01:04:51.647Z,102250.53
2023-09-08T01:07:20.185Z,102249.69
2023-09-08T01:09:48.025Z,102248.38
2023-09-08T01:12:16.426Z,102238.84
2023-09-08T01:14:43.745Z,102249.38
2023-09-08T01:17:11.296Z,102244.50
2023-09-08T01:19:39.257Z,102239.78
2023-09-08T01:22:16.842Z,102238.06
2023-09-08T01:25:08.062Z,102235.16
2023-09-08T01:27:36.497Z,102232.38
2023-09-08T01:30:05.610Z,102232.78
2023-09-08T01:32:33.657Z,102227.03
2023-09-08T01:35:01.058Z,102220.59
2023-09-08T01:37:28.468Z,102227.66
2023-09-08T01:39:55.748Z,102218.88
2023-09-08T01:42:23.385Z,102213.44
2023-09-08T01:44:50.909Z,102216.72
2023-09-08T01:47:18.384Z,102206.50
2023-09-08T01:49:45.756Z,102206.50
2023-09-08T01:52:13.209Z,102190.47
2023-09-08T01:54:40.602Z,102199.22
2023-09-08T01:57:08.031Z,102192.28
2023-09-08T01:59:35.901Z,102192.16
2023-09-08T02:02:04.498Z,102189.38
2023-09-08T02:04:32.567Z,102183.69
2023-09-08T02:06:59.995Z,102184.66
2023-09-08T02:09:33.725Z,102180.06
2023-09-08T02:12:01.725Z,102170.03
2023-09-08T02:14:29.005Z,102158.88
2023-09-08T02:16:57.539Z,102168.41
2023-09-08T02:19:25.157Z,102171.63
2023-09-08T02:21:52.647Z,102160.91
2023-09-08T02:24:20.010Z,102160.91
2023-09-08T02:26:47.767Z,102167.47
2023-09-08T02:29:15.359Z,102161.63
2023-09-08T02:31:42.954Z,102160.69
2023-09-08T02:34:10.482Z,102154.47
2023-09-08T02:36:37.983Z,102154.09
2023-09-08T02:39:05.651Z,102144.00
2023-09-08T02:41:32.973Z,102153.38
2023-09-08T02:44:00.313Z,102152.53
2023-09-08T02:46:27.607Z,102146.44
2023-09-08T02:48:54.977Z,102158.09
2023-09-08T02:51:22.369Z,102157.38
2023-09-08T02:53:50.044Z,102159.31
2023-09-08T02:56:17.387Z,102156.75
2023-09-08T02:58:45.500Z,102153.94
2023-09-08T03:01:14.738Z,102153.00
2023-09-08T03:03:42.746Z,102150.09
2023-09-08T03:06:10.794Z,102142.41
2023-09-08T03:08:38.528Z,102134.19
2023-09-08T03:11:06.691Z,102141.22
2023-09-08T03:13:35.385Z,102129.56
2023-09-08T03:16:03.924Z,102131.88
2023-09-08T03:18:31.276Z,102127.13
2023-09-08T03:20:58.549Z,102126.38
2023-09-08T03:23:25.912Z,102114.00
2023-09-08T03:25:53.703Z,102110.22
2023-09-08T03:28:21.253Z,102119.94
2023-09-08T03:30:48.586Z,102112.78
2023-09-08T03:33:16.077Z,102104.38
2023-09-08T03:35:43.511Z,102102.31
2023-09-08T03:38:10.823Z,102099.03
2023-09-08T03:40:38.971Z,102095.28
2023-09-08T03:43:06.375Z,102087.75
2023-09-08T03:45:34.103Z,102090.41
2023-09-08T03:48:01.734Z,102089.56
2023-09-08T03:50:29.353Z,102098.56
2023-09-08T03:52:57.258Z,102097.56
2023-09-08T03:55:24.786Z,102082.53
2023-09-08T03:57:52.092Z,102065.00
2023-09-08T04:00:23.203Z,102060.75
2023-09-08T04:02:50.782Z,102063.19
2023-09-08T04:05:18.576Z,102057.13
2023-09-08T04:07:46.859Z,102062.38
2023-09-08T04:10:14.728Z,102075.94
2023-09-08T04:12:42.223Z,102070.25
2023-09-08T04:15:10.262Z,102069.41
2023-09-08T04:17:38.465Z,102064.06
2023-09-08T04:20:06.479Z,102069.28
2023-09-08T04:22:34.164Z,102066.47
2023-09-08T04:25:02.194Z,102058.00
2023-09-08T04:27:29.815Z,102057.50
2023-09-08T04:29:57.431Z,102055.22
2023-09-08T04:32:24.974Z,102049.22
2023-09-08T04:34:52.380Z,102050.94
2023-09-08T04:37:19.669Z,102048.28
2023-09-08T04:39:47.257Z,102041.84
2023-09-08T04:42:14.870Z,102030.19
2023-09-08T04:44:42.380Z,102036.97
2023-09-08T04:47:09.724Z,102033.34
2023-09-08T04:49:38.235Z,102043.94
2023-09-08T04:52:05.785Z,102029.09
2023-09-08T04:54:33.345Z,102035.66
2023-09-08T04:57:16.121Z,102033.94
2023-09-08T04:59:48.492Z,102041.00
2023-09-08T05:02:16.263Z,102032.84
2023-09-08T05:04:43.744Z,102035.91
2023-09-08T05:07:11.468Z,102033.00
2023-09-08T05:09:39.035Z,102026.41
2023-09-08T05:12:06.931Z,102021.78
2023-09-08T05:14:34.536Z,102015.09
2023-09-08T05:17:02.085Z,102017.06
2023-09-08T05:19:29.680Z,102018.97
2023-09-08T05:21:57.256Z,102018.00
2023-09-08T05:24:26.932Z,102014.22
2023-09-08T05:26:54.465Z,102011.19
2023-09-08T05:29:21.689Z,102003.16
2023-09-08T05:31:48.996Z,101998.69
2023-09-08T05:34:16.367Z,101999.66
2023-09-08T05:36:43.938Z,101989.53
2023-09-08T05:39:11.795Z,101994.03
2023-09-08T05:41:39.349Z,101991.13
2023-09-08T05:44:06.713Z,101995.50
2023-09-08T05:46:34.252Z,101998.28
2023-09-08T05:49:01.888Z,101992.13
2023-09-08T05:51:29.503Z,101983.22
2023-09-08T05:53:57.285Z,101979.31
2023-09-08T05:56:30.996Z,101989.19
2023-09-08T05:58:58.539Z,101987.34
2023-09-08T06:01:26.329Z,101985.50
2023-09-08T06:03:55.889Z,101990.00
2023-09-08T06:06:23.715Z,101989.19
2023-09-08T06:08:51.062Z,101989.44
2023-09-08T06:11:18.747Z,101987.34
2023-09-08T06:13:46.381Z,101989.03
2023-09-08T06:16:13.762Z,101981.97
2023-09-08T06:18:41.444Z,101978.22
2023-09-08T06:21:08.900Z,101982.72
2023-09-08T06:23:37.810Z,101977.22
2023-09-08T06:26:05.443Z,101982.47
2023-09-08T06:28:33.279Z,101976.16
2023-09-08T06:31:00.977Z,101974.09
2023-09-08T06:33:28.757Z,101973.94
2023-09-08T06:35:56.363Z,101971.97
2023-09-08T06:38:23.746Z,101971.97
2023-09-08T06:40:54.071Z,101974.66
2023-09-08T06:43:21.402Z,101972.97
2023-09-08T06:45:50.163Z,101963.13
2023-09-08T06:48:17.954Z,101968.22
2023-09-08T06:50:45.641Z,101968.94
2023-09-08T06:53:13.938Z,101970.50
2023-09-08T06:55:44.705Z,101962.63
2023-09-08T06:58:15.853Z,101964.53
2023-09-08T07:00:44.011Z,101974.19
2023-09-08T07:03:11.727Z,101974.19
2023-09-08T07:05:40.524Z,101973.06
2023-09-08T07:08:07.984Z,101969.41
2023-09-08T07:10:35.417Z,101972.81
2023-09-08T07:13:03.118Z,101967.19
2023-09-08T07:15:30.936Z,101966.81
2023-09-08T07:17:58.275Z,101961.34
2023-09-08T07:20:25.864Z,101959.25
2023-09-08T07:22:53.575Z,101959.13
2023-09-08T07:25:21.514Z,101956.38
2023-09-08T07:27:49.130Z,101958.09
2023-09-08T07:30:16.527Z,101958.94
2023-09-08T07:32:43.946Z,101950.06
2023-09-08T07:35:15.626Z,101937.78
2023-09-08T07:37:43.127Z,101937.88
2023-09-08T07:40:11.125Z,101938.72
2023-09-08T07:42:38.868Z,101939.97
2023-09-08T07:45:06.775Z,101940.94
2023-09-08T07:47:34.064Z,101944.47
2023-09-08T07:50:17.749Z,101937.53
2023-09-08T07:52:45.304Z,101927.47
2023-09-08T07:55:12.927Z,101926.84
2023-09-08T07:57:40.636Z,101922.91
2023-09-08T08:00:11.637Z,101924.88
2023-09-08T08:02:41.143Z,101926.88
2023-09-08T08:05:10.224Z,101923.44
2023-09-08T08:07:37.711Z,101925.16
2023-09-08T08:10:06.321Z,101931.19
2023-09-08T08:12:53.609Z,101935.50
2023-09-08T08:15:38.717Z,101938.31
2023-09-08T08:18:06.989Z,101937.25
2023-09-08T08:20:37.591Z,101935.69
2023-09-08T08:23:05.552Z,101947.78
2023-09-08T08:25:33.734Z,101943.00
2023-09-08T08:28:02.445Z,101943.09
2023-09-08T08:30:30.196Z,101945.69
2023-09-08T08:32:57.770Z,101944.94
2023-09-08T08:35:25.511Z,101950.91
2023-09-08T08:37:53.209Z,101940.41
2023-09-08T08:40:20.795Z,101941.41
2023-09-08T08:42:48.209Z,101933.97
2023-09-08T08:45:17.300Z,101936.13
2023-09-08T08:47:44.930Z,101934.25
2023-09-08T08:50:13.607Z,101924.06
2023-09-08T08:52:41.646Z,101926.06
2023-09-08T08:55:09.559Z,101920.41
2023-09-08T08:57:40.574Z,101929.03
2023-09-08T09:00:12.294Z,101924.38
2023-09-08T09:02:45.161Z,101919.00
2023-09-08T09:05:15.157Z,101928.31
2023-09-08T09:07:43.037Z,101928.59
2023-09-08T09:10:10.533Z,101928.59
2023-09-08T09:12:40.977Z,101934.81
2023-09-08T09:15:12.668Z,101936.13
2023-09-08T09:17:40.844Z,101934.84
2023-09-08T09:20:18.900Z,101931.28
2023-09-08T09:22:46.326Z,101938.34
2023-09-08T09:25:23.827Z,101935.66
2023-09-08T09:27:57.511Z,101940.34
2023-09-08T09:30:26.015Z,101931.44
2023-09-08T09:33:00.412Z,101933.25
2023-09-08T09:35:47.019Z,101943.88
2023-09-08T09:38:15.007Z,101937.66
2023-09-08T09:40:42.642Z,101938.50
2023-09-08T09:43:11.209Z,101938.06
2023-09-08T09:45:39.362Z,101933.84
2023-09-08T09:48:07.438Z,101929.31
2023-09-08T09:50:37.796Z,101935.66
2023-09-08T09:53:10.759Z,101929.31
2023-09-08T09:55:42.142Z,101932.03
2023-09-08T09:58:11.830Z,101933.72
2023-09-08T10:00:41.708Z,101934.28
2023-09-08T10:03:09.887Z,101933.16
2023-09-08T10:05:38.259Z,101939.63
2023-09-08T10:08:05.967Z,101942.47
2023-09-08T10:10:33.904Z,101934.84
2023-09-08T10:13:04.212Z,101934.72
2023-09-08T10:15:32.133Z,101937.09
2023-09-08T10:18:01.386Z,101938.53
2023-09-08T10:20:29.956Z,101934.41
2023-09-08T10:23:05.273Z,101939.03
2023-09-08T10:25:36.567Z,101934.53
2023-09-08T10:28:05.101Z,101942.31
2023-09-08T10:30:32.872Z,101946.00
2023-09-08T10:33:00.788Z,101943.44
2023-09-08T10:35:29.181Z,101948.81
2023-09-08T10:38:28.680Z,101957.00
2023-09-08T10:41:14.617Z,101960.50
2023-09-08T10:43:43.712Z,101956.16
2023-09-08T10:46:11.779Z,101965.19
2023-09-08T10:48:45.212Z,101963.63
2023-09-08T10:51:15.968Z,101962.84
2023-09-08T10:53:43.532Z,101961.63
2023-09-08T10:56:17.815Z,101956.56
2023-09-08T10:58:50.001Z,101965.19
2023-09-08T11:01:18.700Z,101966.31
2023-09-08T11:03:48.790Z,101962.94
2023-09-08T11:06:17.298Z,101965.63
2023-09-08T11:08:45.491Z,101974.78
2023-09-08T11:11:13.522Z,101969.28
2023-09-08T11:13:41.190Z,101969.13
2023-09-08T11:16:08.791Z,101969.59
2023-09-08T11:18:37.325Z,101968.47
2023-09-08T11:21:08.949Z,101974.88
2023-09-08T11:23:36.452Z,101968.78
2023-09-08T11:26:04.226Z,101970.91
2023-09-08T11:28:31.884Z,101972.34
2023-09-08T11:30:59.678Z,101970.78
2023-09-08T11:33:27.339Z,101971.19
2023-09-08T11:35:58.515Z,101977.56
2023-09-08T11:38:27.744Z,101969.78
2023-09-08T11:40:56.309Z,101972.31
2023-09-08T11:43:24.050Z,101976.72
2023-09-08T11:45:52.021Z,101975.72
2023-09-08T11:48:20.457Z,101975.88
2023-09-08T11:50:47.760Z,101971.63
2023-09-08T11:53:19.812Z,101970.91
2023-09-08T11:55:48.924Z,101967.63
2023-09-08T11:58:19.212Z,101974.72
2023-09-08T12:00:49.034Z,101977.28
2023-09-08T12:03:17.557Z,101978.81
2023-09-08T12:05:46.186Z,101973.47
2023-09-08T12:08:14.029Z,101975.88
2023-09-08T12:10:41.871Z,101978.38
2023-09-08T12:13:10.082Z,101975.59
2023-09-08T12:15:38.739Z,101974.44
2023-09-08T12:18:07.484Z,101980.81
2023-09-08T12:20:35.437Z,101973.75
2023-09-08T12:23:04.092Z,101976.28
2023-09-08T12:25:36.212Z,101975.31
2023-09-08T12:28:05.457Z,101975.31
2023-09-08T12:30:34.306Z,101976.56
2023-09-08T12:33:02.672Z,101980.53
2023-09-08T12:35:32.409Z,101975.00
2023-09-08T12:38:03.785Z,101986.44
2023-09-08T12:40:31.914Z,101988.31
2023-09-08T12:43:03.586Z,101989.97
2023-09-08T12:45:41.466Z,101992.25
2023-09-08T12:48:08.871Z,101984.78
2023-09-08T12:50:36.161Z,101989.00
2023-09-08T12:53:03.809Z,101985.19
2023-09-08T12:55:31.432Z,101983.81
2023-09-08T12:57:59.050Z,101988.03
2023-09-08T13:00:26.862Z,101988.03
2023-09-08T13:02:54.226Z,101983.66
2023-09-08T13:05:21.621Z,101981.94
2023-09-08T13:07:48.906Z,101986.22
2023-09-08T13:10:16.386Z,101983.94
2023-09-08T13:12:43.996Z,101979.69
2023-09-08T13:15:11.556Z,101970.78
2023-09-08T13:17:39.003Z,101981.66
2023-09-08T13:20:07.684Z,101982.78
2023-09-08T13:22:35.550Z,101981.22
2023-09-08T13:25:02.944Z,101982.22
2023-09-08T13:27:30.219Z,101988.59
2023-09-08T13:30:14.287Z,101982.38
2023-09-08T13:32:42.297Z,101979.69
2023-09-08T13:35:09.996Z,101980.38
2023-09-08T13:37:39.482Z,101982.22
2023-09-08T13:40:08.198Z,101977.97
2023-09-08T13:42:36.634Z,101981.50
2023-09-08T13:45:04.906Z,101981.50
2023-09-08T13:47:33.540Z,101978.81
2023-09-08T13:50:05.366Z,101973.47
2023-09-08T13:52:37.900Z,101979.53
2023-09-08T13:55:30.168Z,101976.13
2023-09-08T13:57:55.920Z,101972.47
2023-09-08T14:00:25.066Z,101972.59
2023-09-08T14:05:28.377Z,101966.25
2023-09-08T14:08:06.165Z,101956.50
2023-09-08T14:10:41.514Z,101962.72
2023-09-08T14:13:12.943Z,101965.41
2023-09-08T14:15:40.590Z,101962.84
2023-09-08T14:18:07.959Z,101965.41
2023-09-08T14:20:35.321Z,101965.41
2023-09-08T14:23:03.501Z,101962.84
2023-09-08T14:25:31.134Z,101968.22
2023-09-08T14:28:01.146Z,101964.69
2023-09-08T14:30:29.224Z,101960.31
2023-09-08T14:32:56.890Z,101960.31
2023-09-08T14:35:24.519Z,101962.84
2023-09-08T14:37:52.274Z,101966.38
2023-09-08T14:40:19.745Z,101961.88
2023-09-08T14:42:47.360Z,101963.69
2023-09-08T14:45:14.996Z,101967.38
2023-09-08T14:47:43.044Z,101967.38
2023-09-08T14:50:10.891Z,101979.09
2023-09-08T14:52:38.477Z,101977.28
2023-09-08T14:55:05.863Z,101969.22
2023-09-08T14:57:33.275Z,101978.09
2023-09-08T15:00:01.116Z,101976.44
2023-09-08T15:02:28.910Z,101978.09
2023-09-08T15:04:57.450Z,101974.72
2023-09-08T15:07:25.066Z,101973.88
2023-09-08T15:09:52.426Z,101983.75
2023-09-08T15:12:19.798Z,101976.69
2023-09-08T15:14:47.158Z,101980.38
2023-09-08T15:17:14.392Z,101982.34
2023-09-08T15:19:41.665Z,101982.34
2023-09-08T15:22:09.158Z,101986.00
2023-09-08T15:24:36.453Z,101985.16
2023-09-08T15:27:04.445Z,101977.97
2023-09-08T15:29:32.152Z,101983.16
2023-09-08T15:31:59.523Z,101982.34
2023-09-08T15:34:27.616Z,101973.28
2023-09-08T15:36:55.120Z,101974.16
2023-09-08T15:39:22.555Z,101972.44
2023-09-08T15:41:49.838Z,101970.75
2023-09-08T15:44:18.291Z,101971.91
2023-09-08T15:46:47.330Z,101978.25
2023-09-08T15:49:15.031Z,101976.69
2023-09-08T15:51:42.661Z,101975.09
2023-09-08T15:54:10.082Z,101976.09
2023-09-08T15:56:37.485Z,101978.63
2023-09-08T15:59:05.124Z,101986.69
2023-09-08T16:01:32.918Z,101984.75
2023-09-08T16:04:00.822Z,101989.25
2023-09-08T16:06:28.674Z,101985.72
2023-09-08T16:08:56.694Z,101982.88
2023-09-08T16:11:24.001Z,101989.09
2023-09-08T16:13:51.326Z,101986.41
2023-09-08T16:16:18.685Z,101987.25
2023-09-08T16:18:46.347Z,101981.19
2023-09-08T16:21:13.909Z,101977.66
2023-09-08T16:23:41.675Z,101978.63
2023-09-08T16:26:09.541Z,101980.63
2023-09-08T16:28:37.149Z,101982.47
2023-09-08T16:31:05.576Z,101985.13
2023-09-08T16:33:33.157Z,101994.16
2023-09-08T16:36:00.535Z,101992.50
2023-09-08T16:38:27.945Z,101989.81
2023-09-08T16:40:55.419Z,101988.09
2023-09-08T16:43:22.793Z,101995.28
2023-09-08T16:45:50.055Z,101987.41
2023-09-08T16:48:17.547Z,101988.38
2023-09-08T16:50:45.358Z,101985.81
2023-09-08T16:53:13.158Z,101994.88
2023-09-08T16:55:40.751Z,101988.66
2023-09-08T16:58:08.267Z,101993.16
2023-09-08T17:00:35.514Z,101988.94
2023-09-08T17:03:03.800Z,101991.59
2023-09-08T17:05:31.166Z,101997.25
2023-09-08T17:07:58.518Z,102004.44
2023-09-08T17:10:25.896Z,101999.34
2023-09-08T17:12:53.349Z,101999.59
2023-09-08T17:15:20.709Z,102006.91
2023-09-08T17:17:48.111Z,102010.13
2023-09-08T17:20:15.515Z,102003.06
2023-09-08T17:22:42.897Z,102000.53
2023-09-08T17:25:12.103Z,102006.03
2023-09-08T17:27:42.128Z,102013.47
2023-09-08T17:30:09.667Z,102014.50
2023-09-08T17:32:37.045Z,102003.28
2023-09-08T17:35:05.080Z,102008.66
2023-09-08T17:37:32.414Z,102010.09
2023-09-08T17:40:00.505Z,102009.09
2023-09-08T17:42:28.067Z,102012.31
2023-09-08T17:44:55.633Z,102016.06
2023-09-08T17:47:23.155Z,102018.75
2023-09-08T17:49:50.631Z,102020.47
2023-09-08T17:52:17.892Z,102017.19
2023-09-08T17:54:45.170Z,102012.81
2023-09-08T17:57:12.682Z,102023.69
2023-09-08T17:59:40.042Z,102027.59
2023-09-08T18:02:07.297Z,102037.34
2023-09-08T18:04:35.644Z,102037.34
2023-09-08T18:07:04.688Z,102039.56
2023-09-08T18:09:32.584Z,102037.72
2023-09-08T18:12:00.164Z,102036.50
2023-09-08T18:14:27.545Z,102032.53
2023-09-08T18:16:54.878Z,102037.88
2023-09-08T18:19:22.454Z,102045.19
2023-09-08T18:21:50.165Z,102044.59
2023-09-08T18:24:17.723Z,102046.03
2023-09-08T18:26:45.134Z,102042.50
2023-09-08T18:29:12.418Z,102047.44
2023-09-08T18:31:42.076Z,102042.06
2023-09-08T18:34:10.067Z,102040.72
2023-09-08T18:36:37.670Z,102043.88
2023-09-08T18:39:05.717Z,102039.75
2023-09-08T18:41:33.337Z,102033.09
2023-09-08T18:44:00.566Z,102038.19
2023-09-08T18:46:27.910Z,102034.66
2023-09-08T18:48:55.488Z,102040.50
2023-09-08T18:51:23.148Z,102045.38
2023-09-08T18:53:50.645Z,102046.50
2023-09-08T18:56:19.414Z,102041.59
2023-09-08T18:58:47.458Z,102054.66
2023-09-08T19:01:14.849Z,102055.78
2023-09-08T19:03:42.560Z,102055.06
2023-09-08T19:06:12.874Z,102063.97
2023-09-08T19:08:40.756Z,102066.38
2023-09-08T19:11:08.298Z,102061.50
2023-09-08T19:13:35.936Z,102058.00
2023-09-08T19:16:03.517Z,102056.41
2023-09-08T19:18:31.338Z,102057.59
2023-09-08T19:20:59.067Z,102055.78
2023-09-08T19:23:26.441Z,102057.16
2023-09-08T19:25:54.113Z,102059.84
2023-09-08T19:28:21.432Z,102063.50
2023-09-08T19:30:49.399Z,102065.91
2023-09-08T19:33:18.525Z,102068.13
2023-09-08T19:35:46.194Z,102066.31
2023-09-08T19:38:13.804Z,102060.47
2023-09-08T19:40:41.171Z,102063.31
2023-09-08T19:43:08.407Z,102060.47
2023-09-08T19:45:38.540Z,102059.34
2023-09-08T19:48:06.899Z,102059.25
2023-09-08T19:50:34.605Z,102063.16
2023-09-08T19:53:01.972Z,102063.78
2023-09-08T19:55:29.237Z,102067.56
2023-09-08T19:57:56.568Z,102067.31
2023-09-08T20:00:23.818Z,102068.88
2023-09-08T20:02:51.186Z,102068.66
2023-09-08T20:05:18.531Z,102069.13
2023-09-08T20:07:47.275Z,102080.00
2023-09-08T20:10:14.669Z,102076.81
2023-09-08T20:12:42.693Z,102080.19
2023-09-08T20:15:10.258Z,102085.81
2023-09-08T20:17:37.622Z,102089.00
2023-09-08T20:20:05.919Z,102087.28
2023-09-08T20:22:33.512Z,102087.56
2023-09-08T20:25:01.277Z,102080.59
2023-09-08T20:27:29.961Z,102078.19
2023-09-08T20:29:57.336Z,102072.81
2023-09-08T20:32:24.829Z,102074.63
2023-09-08T20:34:52.214Z,102073.94
2023-09-08T20:37:19.522Z,102073.69
2023-09-08T20:39:47.120Z,102075.91
2023-09-08T20:42:14.721Z,102074.44
2023-09-08T20:44:42.141Z,102076.28
2023-09-08T20:47:09.754Z,102079.81
2023-09-08T20:49:37.288Z,102077.03
2023-09-08T20:52:05.004Z,102074.50
2023-09-08T20:54:34.404Z,102074.97
2023-09-08T20:57:01.696Z,102076.94
2023-09-08T20:59:30.021Z,102072.78
2023-09-08T21:01:57.685Z,102077.41
2023-09-08T21:04:25.112Z,102072.91
2023-09-08T21:06:53.129Z,102071.22
2023-09-08T21:09:20.989Z,102072.56
2023-09-08T21:11:49.454Z,102079.47
2023-09-08T21:14:17.080Z,102082.41
2023-09-08T21:16:45.050Z,102077.88
2023-09-08T21:19:12.391Z,102086.22
2023-09-08T21:21:39.661Z,102090.38
2023-09-08T21:24:07.349Z,102098.06
2023-09-08T21:26:34.875Z,102094.31
2023-09-08T21:29:02.407Z,102099.78
2023-09-08T21:31:29.711Z,102106.00
2023-09-08T21:33:57.488Z,102107.22
2023-09-08T21:36:25.144Z,102107.22
2023-09-08T21:38:54.524Z,102122.44
2023-09-08T21:41:23.497Z,102114.66
2023-09-08T21:43:50.788Z,102108.56
2023-09-08T21:46:18.234Z,102112.59
2023-09-08T21:48:45.601Z,102109.78
2023-09-08T21:51:13.026Z,102115.88
2023-09-08T21:53:40.308Z,102123.78
2023-09-08T21:56:07.728Z,102112.47
2023-09-08T21:58:35.164Z,102112.69
2023-09-08T22:01:03.057Z,102116.75
2023-09-08T22:03:32.135Z,102117.94
2023-09-08T22:05:59.837Z,102126.47
2023-09-08T22:08:27.143Z,102123.81
2023-09-08T22:10:54.809Z,102120.72
2023-09-08T22:13:22.077Z,102121.22
2023-09-08T22:15:49.907Z,102126.34
2023-09-08T22:18:17.645Z,102129.88
2023-09-08T22:20:46.196Z,102124.41
2023-09-08T22:23:13.755Z,102118.91
2023-09-08T22:25:41.345Z,102120.84
2023-09-08T22:28:08.915Z,102123.06
2023-09-08T22:30:36.438Z,102117.19
2023-09-08T22:33:04.538Z,102116.09
2023-09-08T22:35:32.140Z,102123.75
2023-09-08T22:37:59.470Z,102123.16
2023-09-08T22:40:27.107Z,102122.91
2023-09-08T22:42:54.927Z,102127.81
2023-09-08T22:45:22.602Z,102122.31
2023-09-08T22:47:50.312Z,102125.59
2023-09-08T22:50:17.886Z,102132.56
2023-09-08T22:52:45.787Z,102136.09
2023-09-08T22:55:25.029Z,102135.47
2023-09-08T22:57:54.661Z,102139.47
2023-09-08T23:00:23.359Z,102143.63
2023-09-08T23:02:51.365Z,102142.75
2023-09-08T23:05:19.024Z,102140.81
2023-09-08T23:07:46.387Z,102142.53
2023-09-08T23:10:14.040Z,102139.00
2023-09-08T23:12:41.859Z,102139.25
2023-09-08T23:15:10.985Z,102141.69
2023-09-08T23:17:39.184Z,102148.25
2023-09-08T23:20:15.924Z,102144.84
2023-09-08T23:22:44.070Z,102149.34
2023-09-08T23:25:11.862Z,102152.50
2023-09-08T23:27:39.455Z,102156.88
2023-09-08T23:30:07.305Z,102155.06
2023-09-08T23:32:34.659Z,102160.06
2023-09-08T23:35:02.093Z,102159.91
2023-09-08T23:37:29.353Z,102154.69
2023-09-08T23:39:56.859Z,102157.88
2023-09-08T23:42:24.123Z,102149.34
2023-09-08T23:44:51.628Z,102146.66
2023-09-08T23:47:18.921Z,102150.44
2023-09-08T23:49:48.817Z,102148.47
2023-09-08T23:52:16.471Z,102139.50
2023-09-08T23:54:44.023Z,102136.34
2023-09-08T23:57:11.649Z,102135.50
2023-09-08T23:59:39.162Z,102145.44
